createdAt,value
2019-03-20T00:00:53.099Z,2.60
2019-03-20T00:03:21.799Z,2.83
2019-03-20T00:05:50.507Z,2.43
2019-03-20T00:08:19.189Z,2.77
2019-03-20T00:10:47.883Z,3.77
2019-03-20T00:13:16.602Z,3.43
2019-03-20T00:15:45.362Z,2.70
2019-03-20T00:18:14.096Z,3.13
2019-03-20T00:20:42.843Z,3.87
2019-03-20T00:23:11.456Z,2.80
2019-03-20T00:25:40.248Z,3.60
2019-03-20T00:28:10.330Z,3.10
2019-03-20T00:30:39.068Z,2.60
2019-03-20T00:33:07.811Z,3.13
2019-03-20T00:35:36.595Z,3.13
2019-03-20T00:38:09.247Z,2.93
2019-03-20T00:40:37.957Z,2.63
2019-03-20T00:43:07.983Z,3.67
2019-03-20T00:45:36.806Z,2.90
2019-03-20T00:48:08.186Z,2.97
2019-03-20T00:50:36.954Z,3.40
2019-03-20T00:53:05.579Z,2.73
2019-03-20T00:55:34.509Z,2.87
2019-03-20T00:58:03.181Z,2.57
2019-03-20T01:00:31.868Z,3.00
2019-03-20T01:03:00.638Z,2.70
2019-03-20T01:05:29.343Z,2.30
2019-03-20T01:07:58.016Z,2.70
2019-03-20T01:10:26.764Z,2.43
2019-03-20T01:12:55.437Z,2.50
2019-03-20T01:15:24.136Z,2.50
2019-03-20T01:17:52.848Z,2.20
2019-03-20T01:20:21.560Z,2.07
2019-03-20T01:22:52.327Z,2.43
2019-03-20T01:25:21.047Z,2.53
2019-03-20T01:27:49.800Z,1.63
2019-03-20T01:30:38.622Z,1.60
2019-03-20T01:33:10.852Z,1.60
2019-03-20T01:35:41.767Z,1.87
2019-03-20T01:38:10.378Z,2.93
2019-03-20T01:40:40.816Z,1.93
2019-03-20T01:43:09.850Z,2.50
2019-03-20T01:45:38.548Z,1.73
2019-03-20T01:48:07.231Z,1.87
2019-03-20T01:50:35.840Z,2.10
2019-03-20T01:53:05.277Z,1.33
2019-03-20T01:55:33.856Z,2.07
2019-03-20T01:58:02.561Z,1.53
2019-03-20T02:00:31.696Z,2.07
2019-03-20T02:03:00.436Z,2.10
2019-03-20T02:05:35.776Z,1.70
2019-03-20T02:07:59.679Z,1.50
2019-03-20T02:10:28.406Z,1.30
2019-03-20T02:12:58.714Z,1.73
2019-03-20T02:15:38.028Z,1.43
2019-03-20T02:17:58.199Z,1.40
2019-03-20T02:20:26.932Z,1.47
2019-03-20T02:22:55.725Z,1.23
2019-03-20T02:25:24.463Z,1.90
2019-03-20T02:27:53.202Z,1.80
2019-03-20T02:30:21.911Z,1.97
2019-03-20T02:32:50.670Z,2.03
2019-03-20T02:35:19.480Z,1.87
2019-03-20T02:37:48.239Z,1.70
2019-03-20T02:40:17.043Z,1.93
2019-03-20T02:42:45.826Z,1.40
2019-03-20T02:45:14.595Z,1.83
2019-03-20T02:47:43.362Z,1.33
2019-03-20T02:50:12.271Z,1.50
2019-03-20T02:52:41.026Z,2.37
2019-03-20T02:55:09.795Z,1.73
2019-03-20T02:57:38.608Z,2.00
2019-03-20T03:00:08.173Z,1.60
2019-03-20T03:02:36.995Z,1.20
2019-03-20T03:05:05.921Z,1.83
2019-03-20T03:07:36.451Z,1.43
2019-03-20T03:10:05.669Z,1.47
2019-03-20T03:12:34.388Z,1.47
2019-03-20T03:15:03.177Z,1.80
2019-03-20T03:17:32.134Z,1.07
2019-03-20T03:20:00.933Z,1.30
2019-03-20T03:22:29.732Z,1.70
2019-03-20T03:24:58.508Z,1.77
2019-03-20T03:27:27.334Z,1.73
2019-03-20T03:29:56.120Z,1.80
2019-03-20T03:32:26.995Z,1.33
2019-03-20T03:34:57.506Z,1.43
2019-03-20T03:37:26.307Z,1.37
2019-03-20T03:39:55.103Z,1.40
2019-03-20T03:42:23.945Z,0.97
2019-03-20T03:44:52.704Z,1.70
2019-03-20T03:47:24.161Z,1.60
2019-03-20T03:49:52.984Z,1.33
2019-03-20T03:52:25.144Z,1.70
2019-03-20T03:54:53.900Z,1.70
2019-03-20T03:57:22.623Z,1.67
2019-03-20T03:59:51.431Z,1.97
2019-03-20T04:02:20.408Z,1.67
2019-03-20T04:04:49.212Z,1.33
2019-03-20T04:07:18.024Z,1.73
2019-03-20T04:09:46.795Z,1.77
2019-03-20T04:12:15.500Z,2.10
2019-03-20T04:14:44.228Z,1.73
2019-03-20T04:17:38.134Z,2.30
2019-03-20T04:20:07.408Z,2.10
2019-03-20T04:22:36.183Z,1.90
2019-03-20T04:25:05.255Z,2.30
2019-03-20T04:27:34.050Z,2.00
2019-03-20T04:30:04.124Z,2.60
2019-03-20T04:32:32.976Z,1.87
2019-03-20T04:35:03.784Z,2.30
2019-03-20T04:37:32.585Z,2.50
2019-03-20T04:40:01.463Z,2.53
2019-03-20T04:42:30.336Z,2.60
2019-03-20T04:44:59.147Z,2.13
2019-03-20T04:47:27.849Z,1.63
2019-03-20T04:49:56.669Z,2.27
2019-03-20T04:52:25.404Z,1.90
2019-03-20T04:54:54.125Z,2.10
2019-03-20T04:57:23.281Z,2.70
2019-03-20T04:59:51.984Z,1.77
2019-03-20T05:02:20.699Z,1.77
2019-03-20T05:04:49.529Z,2.60
2019-03-20T05:07:18.237Z,2.10
2019-03-20T05:09:46.974Z,2.77
2019-03-20T05:12:15.759Z,2.53
2019-03-20T05:14:44.504Z,2.83
2019-03-20T05:17:13.289Z,2.83
2019-03-20T05:19:42.142Z,2.03
2019-03-20T05:22:10.846Z,2.70
2019-03-20T05:24:39.637Z,2.80
2019-03-20T05:27:08.450Z,3.00
2019-03-20T05:29:37.270Z,3.30
2019-03-20T05:32:05.966Z,3.13
2019-03-20T05:34:36.139Z,3.53
2019-03-20T05:37:10.426Z,3.40
2019-03-20T05:39:35.327Z,3.63
2019-03-20T05:42:04.258Z,3.87
2019-03-20T05:44:33.010Z,4.20
2019-03-20T05:47:01.789Z,4.50
2019-03-20T05:49:30.591Z,3.87
2019-03-20T05:51:59.305Z,4.20
2019-03-20T05:54:30.168Z,4.73
2019-03-20T05:56:58.986Z,4.33
2019-03-20T05:59:27.821Z,4.40
2019-03-20T06:02:00.836Z,5.07
2019-03-20T06:04:29.647Z,4.37
2019-03-20T06:06:58.461Z,4.80
2019-03-20T06:09:27.228Z,4.67
2019-03-20T06:11:56.016Z,4.67
2019-03-20T06:14:24.869Z,4.93
2019-03-20T06:16:53.663Z,5.30
2019-03-20T06:19:22.483Z,5.60
2019-03-20T06:21:51.191Z,5.70
2019-03-20T06:24:19.941Z,5.47
2019-03-20T06:26:48.692Z,5.93
2019-03-20T06:29:18.268Z,6.37
2019-03-20T06:31:47.895Z,6.30
2019-03-20T06:34:16.706Z,6.60
2019-03-20T06:36:45.507Z,6.00
2019-03-20T06:39:17.121Z,6.67
2019-03-20T06:41:45.920Z,6.87
2019-03-20T06:44:14.722Z,7.80
2019-03-20T06:46:43.508Z,7.73
2019-03-20T06:49:12.283Z,8.80
2019-03-20T06:51:41.023Z,10.00
2019-03-20T06:54:09.756Z,8.77
2019-03-20T06:56:38.563Z,8.90
2019-03-20T06:59:24.075Z,9.13
2019-03-20T07:01:55.237Z,9.27
2019-03-20T07:04:29.500Z,10.30
2019-03-20T07:07:18.031Z,10.63
2019-03-20T07:09:59.686Z,11.73
2019-03-20T07:12:28.493Z,11.43
2019-03-20T07:14:57.208Z,11.27
2019-03-20T07:17:25.942Z,10.97
2019-03-20T07:19:54.904Z,9.90
2019-03-20T07:22:26.151Z,10.63
2019-03-20T07:24:54.864Z,11.13
2019-03-20T07:27:23.716Z,11.00
2019-03-20T07:29:52.414Z,11.27
2019-03-20T07:32:21.128Z,11.20
2019-03-20T07:34:49.868Z,10.83
2019-03-20T07:37:18.713Z,11.97
2019-03-20T07:39:47.503Z,12.03
2019-03-20T07:42:16.264Z,12.53
2019-03-20T07:44:45.150Z,11.50
2019-03-20T07:47:13.980Z,11.30
2019-03-20T07:49:42.756Z,12.07
2019-03-20T07:52:13.804Z,11.90
2019-03-20T07:54:43.635Z,12.10
2019-03-20T07:57:12.430Z,11.63
2019-03-20T07:59:41.299Z,12.33
2019-03-20T08:02:10.115Z,12.53
2019-03-20T08:04:44.319Z,12.63
2019-03-20T08:07:13.111Z,12.80
2019-03-20T08:09:41.916Z,12.97
2019-03-20T08:12:10.735Z,13.00
2019-03-20T08:14:39.484Z,12.40
2019-03-20T08:17:08.211Z,13.77
2019-03-20T08:19:37.051Z,11.17
2019-03-20T08:22:06.004Z,12.00
2019-03-20T08:24:34.820Z,12.33
2019-03-20T08:27:03.529Z,12.80
2019-03-20T08:29:32.269Z,13.57
2019-03-20T08:32:01.032Z,11.33
2019-03-20T08:34:29.763Z,12.27
2019-03-20T08:36:58.609Z,11.43
2019-03-20T08:39:27.409Z,12.13
2019-03-20T08:41:56.157Z,13.57
2019-03-20T08:44:24.900Z,12.30
2019-03-20T08:46:53.661Z,11.80
2019-03-20T08:49:24.559Z,12.37
2019-03-20T08:51:53.412Z,11.60
2019-03-20T08:54:22.220Z,12.60
2019-03-20T08:56:50.968Z,10.97
2019-03-20T08:59:19.722Z,12.60
2019-03-20T09:01:48.560Z,11.83
2019-03-20T09:04:17.306Z,12.40
2019-03-20T09:06:46.213Z,12.07
2019-03-20T09:09:15.065Z,11.40
2019-03-20T09:11:43.919Z,10.67
2019-03-20T09:14:12.650Z,11.47
2019-03-20T09:16:41.373Z,11.70
2019-03-20T09:19:10.184Z,12.37
2019-03-20T09:21:38.904Z,11.63
2019-03-20T09:24:07.658Z,11.10
2019-03-20T09:26:36.369Z,11.23
2019-03-20T09:29:05.342Z,10.93
2019-03-20T09:31:34.159Z,11.03
2019-03-20T09:34:03.006Z,10.63
2019-03-20T09:36:42.434Z,10.90
2019-03-20T09:39:02.384Z,11.07
2019-03-20T09:41:31.146Z,10.80
2019-03-20T09:43:59.962Z,11.17
2019-03-20T09:46:31.643Z,11.70
2019-03-20T09:49:00.455Z,11.73
2019-03-20T09:51:29.243Z,11.17
2019-03-20T09:53:58.095Z,11.63
2019-03-20T09:56:26.809Z,10.77
2019-03-20T09:58:55.530Z,10.20
2019-03-20T10:01:24.567Z,11.00
2019-03-20T10:03:53.334Z,11.73
2019-03-20T10:06:22.139Z,11.00
2019-03-20T10:08:54.322Z,11.73
2019-03-20T10:11:21.435Z,11.43
2019-03-20T10:13:50.147Z,11.33
2019-03-20T10:16:18.971Z,11.37
2019-03-20T10:18:47.775Z,12.20
2019-03-20T10:21:16.504Z,11.60
2019-03-20T10:23:45.249Z,11.03
2019-03-20T10:26:13.968Z,11.37
2019-03-20T10:28:42.709Z,11.53
2019-03-20T10:31:11.530Z,11.53
2019-03-20T10:33:40.277Z,12.07
2019-03-20T10:36:09.035Z,12.43
2019-03-20T10:38:37.876Z,11.63
2019-03-20T10:41:07.261Z,11.93
2019-03-20T10:43:36.116Z,11.90
2019-03-20T10:46:04.860Z,11.13
2019-03-20T10:48:33.639Z,11.57
2019-03-20T10:51:02.461Z,12.60
2019-03-20T10:53:31.320Z,11.67
2019-03-20T10:56:00.047Z,12.60
2019-03-20T10:58:28.769Z,12.67
2019-03-20T11:00:57.527Z,12.70
2019-03-20T11:03:26.310Z,12.67
2019-03-20T11:05:55.026Z,12.17
2019-03-20T11:08:23.808Z,13.00
2019-03-20T11:10:52.616Z,11.83
2019-03-20T11:13:21.411Z,13.00
2019-03-20T11:15:50.151Z,12.80
2019-03-20T11:18:20.343Z,12.63
2019-03-20T11:20:49.361Z,12.63
2019-03-20T11:23:18.130Z,12.47
2019-03-20T11:25:46.931Z,12.57
2019-03-20T11:28:15.732Z,12.00
2019-03-20T11:30:44.452Z,13.13
2019-03-20T11:33:13.211Z,12.17
2019-03-20T11:35:42.582Z,13.13
2019-03-20T11:38:11.474Z,12.80
2019-03-20T11:40:40.245Z,12.10
2019-03-20T11:43:09.005Z,8.73
2019-03-20T11:45:37.745Z,12.80
2019-03-20T11:48:06.540Z,12.37
2019-03-20T11:50:36.237Z,12.63
2019-03-20T11:53:06.239Z,12.80
2019-03-20T11:55:35.028Z,12.43
2019-03-20T11:58:03.918Z,13.27
2019-03-20T12:00:32.734Z,12.20
2019-03-20T12:03:01.524Z,13.30
2019-03-20T12:05:30.256Z,12.97
2019-03-20T12:07:59.094Z,12.80
2019-03-20T12:10:28.005Z,13.47
2019-03-20T12:12:56.869Z,12.73
2019-03-20T12:15:25.606Z,13.27
2019-03-20T12:17:54.346Z,14.00
2019-03-20T12:20:23.136Z,12.63
2019-03-20T12:22:52.120Z,14.37
2019-03-20T12:25:21.952Z,14.10
2019-03-20T12:27:50.694Z,13.33
2019-03-20T12:30:20.450Z,13.67
2019-03-20T12:32:49.167Z,13.63
2019-03-20T12:35:17.947Z,13.47
2019-03-20T12:37:46.698Z,13.63
2019-03-20T12:40:17.499Z,13.87
2019-03-20T12:42:46.302Z,13.80
2019-03-20T12:45:15.723Z,14.53
2019-03-20T12:47:44.474Z,13.00
2019-03-20T12:50:13.317Z,14.83
2019-03-20T12:52:42.124Z,12.57
2019-03-20T12:55:11.470Z,15.07
2019-03-20T12:57:40.322Z,14.30
2019-03-20T13:00:13.617Z,14.87
2019-03-20T13:02:42.452Z,15.10
2019-03-20T13:05:11.260Z,14.87
2019-03-20T13:07:40.052Z,14.50
2019-03-20T13:10:09.736Z,13.80
2019-03-20T13:12:38.542Z,14.77
2019-03-20T13:15:09.578Z,14.73
2019-03-20T13:17:38.419Z,14.70
2019-03-20T13:20:07.748Z,15.03
2019-03-20T13:22:36.526Z,15.63
2019-03-20T13:25:06.115Z,15.03
2019-03-20T13:27:36.666Z,14.40
2019-03-20T13:30:07.920Z,14.17
2019-03-20T13:32:36.701Z,15.00
2019-03-20T13:35:05.938Z,13.70
2019-03-20T13:37:34.679Z,14.17
2019-03-20T13:40:13.638Z,13.60
2019-03-20T13:42:33.937Z,15.30
2019-03-20T13:45:02.748Z,13.37
2019-03-20T13:47:31.545Z,15.13
2019-03-20T13:50:00.427Z,14.87
2019-03-20T13:52:29.217Z,15.37
2019-03-20T13:54:58.000Z,15.13
2019-03-20T13:57:26.749Z,14.47
2019-03-20T13:59:55.584Z,14.93
2019-03-20T14:02:24.347Z,14.63
2019-03-20T14:04:53.141Z,14.83
2019-03-20T14:07:21.869Z,14.20
2019-03-20T14:09:55.431Z,14.50
2019-03-20T14:12:24.191Z,14.57
2019-03-20T14:14:52.947Z,16.37
2019-03-20T14:17:26.381Z,16.10
2019-03-20T14:19:56.851Z,15.93
2019-03-20T14:22:25.768Z,15.90
2019-03-20T14:24:55.790Z,17.03
2019-03-20T14:27:25.124Z,16.37
2019-03-20T14:29:53.937Z,16.23
2019-03-20T14:32:22.698Z,14.00
2019-03-20T14:34:51.640Z,15.43
2019-03-20T14:37:23.335Z,16.97
2019-03-20T14:39:52.150Z,17.23
2019-03-20T14:42:20.987Z,16.07
2019-03-20T14:44:51.720Z,17.07
2019-03-20T14:47:20.230Z,18.53
2019-03-20T14:49:49.040Z,16.80
2019-03-20T14:52:17.860Z,18.30
2019-03-20T14:54:47.803Z,17.60
2019-03-20T14:57:17.829Z,17.33
2019-03-20T14:59:46.683Z,16.37
2019-03-20T15:02:15.567Z,16.37
2019-03-20T15:04:44.433Z,17.63
2019-03-20T15:07:13.510Z,17.73
2019-03-20T15:09:42.356Z,18.47
2019-03-20T15:12:11.247Z,17.33
2019-03-20T15:14:40.312Z,16.20
2019-03-20T15:17:09.157Z,18.30
2019-03-20T15:19:40.314Z,18.37
2019-03-20T15:22:09.244Z,16.87
2019-03-20T15:24:37.980Z,18.47
2019-03-20T15:27:08.199Z,17.47
2019-03-20T15:29:37.018Z,17.47
2019-03-20T15:32:06.827Z,17.43
2019-03-20T15:34:35.659Z,16.67
2019-03-20T15:37:04.557Z,16.17
2019-03-20T15:39:33.298Z,15.83
2019-03-20T15:42:02.047Z,16.40
2019-03-20T15:44:30.839Z,15.53
2019-03-20T15:47:01.201Z,17.37
2019-03-20T15:49:30.020Z,17.37
2019-03-20T15:51:58.836Z,16.13
2019-03-20T15:54:27.649Z,16.97
2019-03-20T15:56:56.409Z,16.03
2019-03-20T15:59:25.260Z,15.50
2019-03-20T16:01:54.004Z,16.03
2019-03-20T16:04:22.800Z,15.20
2019-03-20T16:06:51.600Z,16.83
2019-03-20T16:09:22.884Z,15.57
2019-03-20T16:11:54.684Z,15.93
2019-03-20T16:14:23.565Z,16.23
2019-03-20T16:16:52.388Z,14.97
2019-03-20T16:19:21.243Z,16.70
2019-03-20T16:21:53.379Z,14.43
2019-03-20T16:24:22.215Z,15.97
2019-03-20T16:26:55.377Z,17.30
2019-03-20T16:29:23.958Z,16.77
2019-03-20T16:31:52.730Z,17.63
2019-03-20T16:34:23.409Z,17.77
2019-03-20T16:36:52.181Z,15.93
2019-03-20T16:39:21.026Z,16.73
2019-03-20T16:41:54.431Z,16.93
2019-03-20T16:44:23.189Z,16.13
2019-03-20T16:46:52.031Z,17.67
2019-03-20T16:49:20.851Z,16.27
2019-03-20T16:51:58.702Z,19.67
2019-03-20T16:54:27.530Z,18.80
2019-03-20T16:56:57.562Z,18.00
2019-03-20T16:59:26.434Z,17.37
2019-03-20T17:01:55.277Z,18.07
2019-03-20T17:04:24.110Z,17.60
2019-03-20T17:06:52.839Z,17.80
2019-03-20T17:09:23.676Z,18.10
2019-03-20T17:11:52.164Z,17.83
2019-03-20T17:14:20.907Z,17.77
2019-03-20T17:16:49.679Z,18.47
2019-03-20T17:19:18.513Z,18.57
2019-03-20T17:21:47.755Z,19.63
2019-03-20T17:24:16.475Z,18.87
2019-03-20T17:26:45.232Z,20.17
2019-03-20T17:29:14.056Z,19.37
2019-03-20T17:31:42.875Z,19.67
2019-03-20T17:34:11.902Z,19.20
2019-03-20T17:36:40.777Z,18.53
2019-03-20T17:39:09.807Z,20.70
2019-03-20T17:41:38.599Z,20.20
2019-03-20T17:44:07.442Z,19.27
2019-03-20T17:46:36.331Z,20.03
2019-03-20T17:49:05.210Z,19.67
2019-03-20T17:51:34.024Z,19.00
2019-03-20T17:54:02.775Z,19.87
2019-03-20T17:56:31.745Z,18.67
2019-03-20T17:59:00.553Z,18.47
2019-03-20T18:01:29.392Z,19.40
2019-03-20T18:03:58.225Z,19.70
2019-03-20T18:06:27.079Z,19.67
2019-03-20T18:08:55.948Z,18.90
2019-03-20T18:11:24.705Z,18.27
2019-03-20T18:13:53.458Z,19.50
2019-03-20T18:16:22.270Z,18.20
2019-03-20T18:18:51.228Z,19.60
2019-03-20T18:21:20.109Z,18.40
2019-03-20T18:23:48.934Z,18.57
2019-03-20T18:26:17.776Z,19.13
2019-03-20T18:28:46.576Z,18.30
2019-03-20T18:31:15.462Z,19.13
2019-03-20T18:33:44.283Z,20.00
2019-03-20T18:36:14.976Z,19.10
2019-03-20T18:38:43.741Z,28.03
2019-03-20T18:41:12.574Z,24.63
2019-03-20T18:43:41.469Z,19.17
2019-03-20T18:46:10.288Z,21.93
2019-03-20T18:48:39.000Z,21.80
2019-03-20T18:51:07.837Z,22.07
2019-03-20T18:53:36.771Z,20.70
2019-03-20T18:56:05.624Z,20.90
2019-03-20T18:58:34.488Z,20.60
2019-03-20T19:01:03.433Z,19.73
2019-03-20T19:03:32.307Z,23.00
2019-03-20T19:06:03.251Z,22.57
2019-03-20T19:08:32.109Z,18.77
2019-03-20T19:11:01.054Z,18.13
2019-03-20T19:13:29.891Z,20.33
2019-03-20T19:15:58.701Z,18.83
2019-03-20T19:18:27.572Z,18.87
2019-03-20T19:20:57.491Z,17.43
2019-03-20T19:23:26.376Z,19.40
2019-03-20T19:25:55.288Z,18.23
2019-03-20T19:28:24.146Z,19.73
2019-03-20T19:30:53.031Z,19.17
2019-03-20T19:33:21.909Z,18.73
2019-03-20T19:35:50.815Z,19.50
2019-03-20T19:38:19.643Z,18.03
2019-03-20T19:40:48.501Z,18.33
2019-03-20T19:43:17.321Z,18.83
2019-03-20T19:45:46.190Z,17.93
2019-03-20T19:48:17.628Z,18.53
2019-03-20T19:50:46.561Z,18.70
2019-03-20T19:53:15.493Z,18.03
2019-03-20T19:55:44.368Z,17.60
2019-03-20T19:58:13.220Z,19.73
2019-03-20T20:00:42.999Z,18.50
2019-03-20T20:03:11.931Z,18.70
2019-03-20T20:05:40.829Z,19.23
2019-03-20T20:08:09.743Z,18.13
2019-03-20T20:10:38.574Z,17.63
2019-03-20T20:13:07.472Z,19.30
2019-03-20T20:15:36.352Z,18.10
2019-03-20T20:18:05.247Z,18.27
2019-03-20T20:20:34.113Z,19.03
2019-03-20T20:23:04.411Z,25.30
2019-03-20T20:25:34.070Z,19.13
2019-03-20T20:28:05.659Z,21.57
2019-03-20T20:30:34.457Z,19.43
2019-03-20T20:33:03.312Z,22.30
2019-03-20T20:35:32.202Z,21.23
2019-03-20T20:38:01.057Z,19.37
2019-03-20T20:40:30.201Z,21.33
2019-03-20T20:42:59.015Z,19.10
2019-03-20T20:45:27.809Z,20.93
2019-03-20T20:47:56.606Z,19.57
2019-03-20T20:50:25.387Z,20.67
2019-03-20T20:52:54.228Z,21.33
2019-03-20T20:55:23.027Z,19.67
2019-03-20T20:57:51.871Z,20.20
2019-03-20T21:00:22.219Z,20.00
2019-03-20T21:02:51.037Z,20.40
2019-03-20T21:05:20.105Z,19.27
2019-03-20T21:07:48.925Z,20.67
2019-03-20T21:10:17.742Z,20.23
2019-03-20T21:12:55.426Z,19.37
2019-03-20T21:15:36.096Z,19.27
2019-03-20T21:18:28.255Z,20.43
2019-03-20T21:20:57.283Z,19.47
2019-03-20T21:23:46.709Z,20.60
2019-03-20T21:26:15.869Z,18.93
2019-03-20T21:29:03.747Z,20.47
2019-03-20T21:31:40.127Z,18.30
2019-03-20T21:34:33.171Z,19.67
2019-03-20T21:37:26.881Z,21.43
2019-03-20T21:39:56.056Z,19.47
2019-03-20T21:42:44.083Z,20.40
2019-03-20T21:45:30.683Z,18.57
2019-03-20T21:47:59.691Z,19.50
2019-03-20T21:51:00.036Z,19.50
2019-03-20T21:53:44.695Z,19.80
2019-03-20T21:56:26.209Z,18.13
2019-03-20T21:59:11.242Z,19.10
2019-03-20T22:01:59.078Z,19.50
2019-03-20T22:04:29.634Z,21.33
2019-03-20T22:07:08.418Z,21.80
2019-03-20T22:10:14.633Z,20.37
2019-03-20T22:13:18.158Z,21.00
2019-03-20T22:16:07.299Z,19.53
2019-03-20T22:18:55.093Z,19.43
2019-03-20T22:21:34.725Z,18.40
2019-03-20T22:24:17.658Z,19.60
2019-03-20T22:26:56.033Z,18.97
2019-03-20T22:29:25.848Z,20.47
2019-03-20T22:31:58.443Z,21.63
2019-03-20T22:34:42.539Z,20.00
2019-03-20T22:37:11.515Z,20.13
2019-03-20T22:40:11.768Z,19.80
2019-03-20T22:42:43.247Z,19.50
2019-03-20T22:45:31.057Z,19.73
2019-03-20T22:48:14.430Z,19.43
2019-03-20T22:51:05.321Z,20.10
2019-03-20T22:53:51.959Z,21.80
2019-03-20T22:56:25.178Z,20.63
2019-03-20T22:58:54.216Z,19.80
2019-03-20T23:01:28.575Z,19.93
2019-03-20T23:03:59.760Z,20.40
2019-03-20T23:06:28.801Z,21.13
2019-03-20T23:08:57.887Z,21.20
2019-03-20T23:11:26.937Z,19.47
2019-03-20T23:13:55.905Z,19.67
2019-03-20T23:16:27.683Z,21.00
2019-03-20T23:18:56.762Z,20.20
2019-03-20T23:21:25.734Z,20.30
2019-03-20T23:23:54.737Z,21.43
2019-03-20T23:26:23.769Z,18.47
2019-03-20T23:28:52.755Z,20.57
2019-03-20T23:31:21.665Z,20.90
2019-03-20T23:33:50.718Z,20.73
2019-03-20T23:36:22.614Z,19.17
2019-03-20T23:38:51.585Z,21.70
2019-03-20T23:41:20.567Z,20.73
2019-03-20T23:43:53.283Z,21.20
2019-03-20T23:46:20.204Z,21.03
2019-03-20T23:48:51.182Z,20.57
2019-03-20T23:51:20.629Z,22.27
2019-03-20T23:53:51.003Z,21.67
2019-03-20T23:56:20.003Z,20.40
2019-03-20T23:58:49.018Z,20.63
